createdAt,value
2017-08-24T00:02:24.318Z,7.90
2017-08-24T00:04:52.602Z,5.97
2017-08-24T00:07:20.157Z,6.90
2017-08-24T00:09:47.732Z,7.37
2017-08-24T00:12:15.279Z,7.13
2017-08-24T00:14:43.043Z,7.67
2017-08-24T00:17:10.718Z,6.57
2017-08-24T00:19:38.258Z,7.80
2017-08-24T00:22:06.492Z,7.00
2017-08-24T00:24:34.009Z,6.43
2017-08-24T00:27:01.563Z,7.20
2017-08-24T00:29:29.078Z,6.77
2017-08-24T00:31:56.594Z,6.30
2017-08-24T00:34:24.130Z,7.17
2017-08-24T00:36:51.687Z,6.80
2017-08-24T00:39:19.802Z,6.40
2017-08-24T00:41:47.307Z,6.20
2017-08-24T00:44:15.690Z,7.67
2017-08-24T00:46:43.851Z,7.43
2017-08-24T00:49:11.429Z,6.97
2017-08-24T00:51:38.986Z,7.87
2017-08-24T00:54:06.559Z,8.10
2017-08-24T00:56:34.655Z,7.23
2017-08-24T00:59:02.154Z,8.37
2017-08-24T01:01:29.743Z,7.17
2017-08-24T01:03:57.246Z,10.37
2017-08-24T01:06:24.902Z,6.80
2017-08-24T01:08:52.406Z,7.90
2017-08-24T01:11:19.927Z,8.10
2017-08-24T01:13:47.525Z,6.80
2017-08-24T01:16:15.082Z,6.77
2017-08-24T01:18:43.155Z,7.10
2017-08-24T01:21:11.122Z,7.70
2017-08-24T01:23:38.623Z,7.40
2017-08-24T01:26:06.156Z,7.37
2017-08-24T01:28:33.655Z,6.60
2017-08-24T01:31:01.155Z,7.00
2017-08-24T01:33:28.723Z,6.60
2017-08-24T01:35:56.280Z,7.07
2017-08-24T01:38:24.714Z,7.43
2017-08-24T01:40:52.314Z,7.20
2017-08-24T01:43:19.874Z,7.00
2017-08-24T01:45:47.826Z,7.90
2017-08-24T01:48:15.399Z,7.97
2017-08-24T01:50:43.266Z,7.60
2017-08-24T01:53:10.826Z,8.23
2017-08-24T01:55:38.383Z,8.10
2017-08-24T01:58:05.900Z,7.93
2017-08-24T02:00:33.818Z,7.53
2017-08-24T02:03:01.366Z,6.47
2017-08-24T02:05:28.873Z,6.80
2017-08-24T02:07:56.396Z,7.67
2017-08-24T02:10:23.942Z,6.60
2017-08-24T02:12:51.460Z,7.10
2017-08-24T02:15:19.898Z,8.10
2017-08-24T02:17:47.443Z,7.57
2017-08-24T02:20:14.994Z,7.40
2017-08-24T02:22:43.379Z,8.23
2017-08-24T02:25:10.995Z,7.57
2017-08-24T02:27:38.595Z,7.30
2017-08-24T02:30:06.164Z,6.63
2017-08-24T02:32:33.668Z,8.10
2017-08-24T02:35:01.179Z,7.63
2017-08-24T02:37:28.683Z,7.30
2017-08-24T02:39:56.199Z,7.30
2017-08-24T02:42:23.704Z,8.00
2017-08-24T02:44:51.302Z,6.93
2017-08-24T02:47:19.469Z,8.47
2017-08-24T02:49:46.986Z,7.13
2017-08-24T02:52:15.308Z,7.50
2017-08-24T02:54:42.870Z,7.57
2017-08-24T02:57:10.362Z,7.67
2017-08-24T02:59:37.890Z,8.20
2017-08-24T03:02:05.446Z,7.70
2017-08-24T03:04:33.023Z,9.00
2017-08-24T03:07:00.563Z,7.37
2017-08-24T03:09:28.123Z,7.70
2017-08-24T03:11:55.623Z,8.70
2017-08-24T03:14:23.134Z,9.17
2017-08-24T03:16:51.427Z,8.33
2017-08-24T03:19:19.075Z,8.27
2017-08-24T03:21:46.596Z,8.10
2017-08-24T03:24:15.022Z,8.90
2017-08-24T03:26:42.683Z,7.90
2017-08-24T03:29:10.258Z,9.10
2017-08-24T03:31:37.794Z,8.57
2017-08-24T03:34:05.290Z,7.70
2017-08-24T03:36:32.915Z,8.63
2017-08-24T03:39:00.466Z,8.07
2017-08-24T03:41:28.034Z,7.10
2017-08-24T03:43:55.586Z,7.77
2017-08-24T03:46:23.142Z,7.90
2017-08-24T03:48:52.247Z,8.17
2017-08-24T03:51:19.766Z,8.93
2017-08-24T03:53:48.080Z,8.37
2017-08-24T03:56:15.602Z,8.77
2017-08-24T03:58:44.327Z,8.70
2017-08-24T04:01:11.878Z,9.17
2017-08-24T04:03:39.438Z,8.27
2017-08-24T04:06:07.686Z,8.60
2017-08-24T04:08:35.212Z,7.93
2017-08-24T04:11:02.721Z,9.40
2017-08-24T04:13:30.298Z,9.17
2017-08-24T04:15:57.846Z,8.13
2017-08-24T04:18:25.406Z,8.33
2017-08-24T04:20:52.903Z,9.83
2017-08-24T04:23:20.645Z,9.50
2017-08-24T04:25:48.186Z,8.40
2017-08-24T04:28:15.746Z,8.73
2017-08-24T04:30:43.251Z,9.10
2017-08-24T04:33:10.858Z,10.97
2017-08-24T04:35:39.079Z,8.93
2017-08-24T04:38:06.591Z,9.37
2017-08-24T04:40:34.154Z,8.97
2017-08-24T04:43:02.394Z,10.73
2017-08-24T04:45:30.518Z,8.50
2017-08-24T04:47:58.035Z,8.73
2017-08-24T04:50:25.534Z,9.20
2017-08-24T04:52:53.050Z,9.50
2017-08-24T04:55:20.634Z,9.10
2017-08-24T04:57:48.611Z,8.30
2017-08-24T05:00:16.168Z,9.27
2017-08-24T05:02:43.724Z,8.67
2017-08-24T05:05:11.281Z,8.90
2017-08-24T05:07:39.559Z,8.40
2017-08-24T05:10:07.114Z,9.50
2017-08-24T05:12:34.675Z,9.07
2017-08-24T05:15:02.192Z,8.40
2017-08-24T05:17:29.920Z,8.17
2017-08-24T05:19:57.434Z,8.17
2017-08-24T05:22:25.296Z,9.43
2017-08-24T05:24:52.879Z,9.63
2017-08-24T05:27:20.379Z,8.80
2017-08-24T05:29:47.998Z,9.57
2017-08-24T05:32:15.489Z,9.00
2017-08-24T05:34:43.024Z,10.43
2017-08-24T05:37:10.575Z,10.10
2017-08-24T05:39:38.111Z,9.73
2017-08-24T05:42:05.619Z,9.20
2017-08-24T05:44:33.204Z,9.37
2017-08-24T05:47:00.802Z,8.40
2017-08-24T05:49:28.411Z,8.73
2017-08-24T05:51:56.046Z,8.50
2017-08-24T05:54:23.587Z,10.47
2017-08-24T05:56:51.147Z,8.30
2017-08-24T05:59:18.643Z,8.20
2017-08-24T06:01:46.159Z,7.73
2017-08-24T06:04:13.924Z,9.87
2017-08-24T06:06:41.487Z,9.00
2017-08-24T06:09:09.043Z,8.60
2017-08-24T06:11:37.407Z,9.40
2017-08-24T06:14:04.904Z,8.97
2017-08-24T06:16:32.423Z,9.97
2017-08-24T06:18:59.926Z,9.67
2017-08-24T06:21:27.564Z,9.60
2017-08-24T06:23:55.061Z,9.00
2017-08-24T06:26:22.670Z,7.33
2017-08-24T06:28:50.175Z,8.27
2017-08-24T06:31:17.690Z,7.87
2017-08-24T06:33:45.250Z,8.40
2017-08-24T06:36:12.807Z,8.37
2017-08-24T06:38:40.363Z,7.87
2017-08-24T06:41:08.022Z,7.50
2017-08-24T06:43:35.591Z,9.97
2017-08-24T06:46:03.142Z,11.60
2017-08-24T06:48:31.522Z,10.23
2017-08-24T06:50:59.078Z,10.37
2017-08-24T06:53:26.638Z,10.83
2017-08-24T06:55:54.206Z,12.20
2017-08-24T06:58:22.276Z,12.90
2017-08-24T07:00:49.991Z,13.87
2017-08-24T07:03:17.490Z,14.13
2017-08-24T07:05:45.050Z,15.50
2017-08-24T07:08:12.610Z,15.63
2017-08-24T07:10:40.136Z,15.70
2017-08-24T07:13:07.731Z,15.10
2017-08-24T07:15:35.286Z,15.27
2017-08-24T07:18:02.846Z,14.97
2017-08-24T07:20:30.515Z,17.20
2017-08-24T07:22:58.038Z,17.23
2017-08-24T07:25:25.627Z,15.97
2017-08-24T07:27:53.147Z,16.10
2017-08-24T07:30:20.663Z,15.37
2017-08-24T07:32:49.047Z,14.53
2017-08-24T07:35:16.555Z,15.97
2017-08-24T07:37:44.859Z,15.13
2017-08-24T07:40:12.416Z,16.63
2017-08-24T07:42:39.947Z,19.00
2017-08-24T07:45:07.531Z,18.00
2017-08-24T07:47:35.094Z,17.87
2017-08-24T07:50:02.651Z,17.77
2017-08-24T07:52:30.310Z,19.83
2017-08-24T07:54:57.875Z,26.27
2017-08-24T07:57:25.431Z,16.53
2017-08-24T07:59:52.987Z,17.93
2017-08-24T08:02:20.651Z,18.40
2017-08-24T08:04:48.931Z,16.30
2017-08-24T08:07:16.488Z,16.77
2017-08-24T08:09:44.047Z,16.50
2017-08-24T08:12:11.551Z,17.23
2017-08-24T08:14:39.158Z,16.47
2017-08-24T08:17:07.334Z,16.67
2017-08-24T08:19:34.859Z,15.77
2017-08-24T08:22:02.456Z,16.67
2017-08-24T08:24:30.019Z,17.70
2017-08-24T08:26:57.572Z,16.20
2017-08-24T08:29:25.131Z,15.47
2017-08-24T08:31:52.644Z,16.97
2017-08-24T08:34:20.247Z,15.40
2017-08-24T08:36:47.807Z,16.13
2017-08-24T08:39:15.367Z,15.57
2017-08-24T08:41:42.923Z,13.63
2017-08-24T08:44:10.487Z,14.27
2017-08-24T08:46:38.058Z,14.53
2017-08-24T08:49:05.583Z,14.07
2017-08-24T08:51:33.091Z,13.70
2017-08-24T08:54:00.718Z,13.83
2017-08-24T08:56:28.222Z,12.70
2017-08-24T08:58:55.739Z,13.40
2017-08-24T09:01:23.984Z,12.73
2017-08-24T09:03:52.296Z,12.40
2017-08-24T09:06:19.822Z,11.83
2017-08-24T09:08:47.511Z,11.43
2017-08-24T09:11:15.067Z,10.87
2017-08-24T09:13:42.579Z,10.20
2017-08-24T09:16:10.914Z,10.93
2017-08-24T09:18:38.462Z,10.37
2017-08-24T09:21:06.019Z,10.43
2017-08-24T09:23:33.578Z,12.10
2017-08-24T09:26:01.145Z,11.43
2017-08-24T09:28:28.799Z,10.63
2017-08-24T09:30:56.465Z,11.67
2017-08-24T09:33:24.835Z,9.60
2017-08-24T09:35:52.363Z,10.77
2017-08-24T09:38:19.955Z,10.53
2017-08-24T09:40:47.511Z,9.83
2017-08-24T09:43:15.742Z,9.47
2017-08-24T09:45:44.062Z,9.67
2017-08-24T09:48:11.574Z,9.20
2017-08-24T09:50:39.182Z,8.30
2017-08-24T09:53:06.698Z,9.20
2017-08-24T09:55:34.279Z,9.00
2017-08-24T09:58:01.799Z,9.03
2017-08-24T10:00:29.310Z,9.00
2017-08-24T10:02:56.879Z,9.40
2017-08-24T10:05:24.387Z,10.03
2017-08-24T10:07:51.904Z,9.70
2017-08-24T10:10:20.283Z,12.80
2017-08-24T10:12:47.800Z,9.30
2017-08-24T10:15:15.294Z,9.40
2017-08-24T10:17:42.815Z,8.97
2017-08-24T10:20:10.351Z,9.40
2017-08-24T10:22:37.960Z,9.77
2017-08-24T10:25:05.715Z,9.30
2017-08-24T10:27:33.283Z,8.57
2017-08-24T10:30:01.642Z,9.63
2017-08-24T10:32:29.119Z,9.27
2017-08-24T10:34:56.679Z,8.10
2017-08-24T10:37:24.234Z,9.03
2017-08-24T10:39:51.725Z,9.50
2017-08-24T10:42:19.256Z,9.83
2017-08-24T10:44:46.767Z,8.80
2017-08-24T10:47:14.376Z,9.87
2017-08-24T10:49:41.951Z,8.13
2017-08-24T10:52:09.467Z,8.97
2017-08-24T10:54:37.046Z,7.60
2017-08-24T10:57:04.615Z,8.90
2017-08-24T10:59:32.167Z,8.87
2017-08-24T11:01:59.675Z,7.60
2017-08-24T11:04:27.195Z,8.00
2017-08-24T11:06:54.703Z,8.00
2017-08-24T11:09:22.431Z,7.40
2017-08-24T11:11:49.958Z,7.40
2017-08-24T11:14:17.483Z,7.60
2017-08-24T11:16:45.079Z,7.17
2017-08-24T11:19:12.599Z,7.00
2017-08-24T11:21:40.199Z,9.10
2017-08-24T11:24:07.752Z,8.03
2017-08-24T11:26:35.351Z,6.83
2017-08-24T11:29:02.976Z,7.93
2017-08-24T11:31:30.536Z,8.27
2017-08-24T11:33:58.090Z,7.37
2017-08-24T11:36:26.312Z,7.40
2017-08-24T11:38:53.835Z,8.00
2017-08-24T11:41:21.395Z,7.70
2017-08-24T11:43:48.944Z,7.13
2017-08-24T11:46:16.519Z,6.70
2017-08-24T11:48:44.162Z,7.30
2017-08-24T11:51:11.931Z,6.40
2017-08-24T11:53:39.491Z,6.90
2017-08-24T11:56:07.061Z,7.60
2017-08-24T11:58:35.170Z,6.53
2017-08-24T12:01:02.690Z,7.00
2017-08-24T12:03:30.243Z,7.83
2017-08-24T12:05:57.760Z,6.50
2017-08-24T12:08:25.354Z,7.17
2017-08-24T12:10:52.877Z,6.77
2017-08-24T12:13:20.471Z,7.00
2017-08-24T12:15:47.992Z,6.50
2017-08-24T12:18:15.592Z,7.17
2017-08-24T12:20:43.266Z,7.13
2017-08-24T12:23:10.762Z,7.03
2017-08-24T12:25:38.275Z,6.03
2017-08-24T12:28:05.778Z,7.20
2017-08-24T12:30:33.298Z,6.73
2017-08-24T12:33:00.795Z,7.03
2017-08-24T12:35:28.399Z,7.50
2017-08-24T12:37:55.947Z,7.37
2017-08-24T12:40:23.487Z,7.73
2017-08-24T12:42:51.091Z,7.10
2017-08-24T12:45:18.591Z,7.17
2017-08-24T12:47:46.119Z,6.80
2017-08-24T12:50:13.623Z,7.87
2017-08-24T12:52:41.225Z,6.30
2017-08-24T12:55:08.774Z,6.73
2017-08-24T12:57:36.291Z,8.93
2017-08-24T13:00:03.892Z,7.97
2017-08-24T13:02:31.448Z,6.33
2017-08-24T13:04:59.002Z,6.70
2017-08-24T13:07:26.566Z,7.10
2017-08-24T13:09:54.855Z,6.27
2017-08-24T13:12:22.402Z,6.27
2017-08-24T13:14:49.907Z,6.83
2017-08-24T13:17:17.423Z,9.00
2017-08-24T13:19:44.928Z,7.03
2017-08-24T13:22:13.174Z,6.50
2017-08-24T13:24:40.676Z,6.90
2017-08-24T13:27:08.263Z,6.83
2017-08-24T13:29:35.767Z,7.10
2017-08-24T13:32:03.286Z,20.87
2017-08-24T13:34:30.792Z,8.10
2017-08-24T13:36:58.302Z,7.70
2017-08-24T13:39:25.811Z,6.83
2017-08-24T13:41:53.327Z,8.30
2017-08-24T13:44:21.799Z,8.93
2017-08-24T13:46:49.334Z,6.70
2017-08-24T13:49:16.911Z,8.57
2017-08-24T13:51:44.474Z,8.70
2017-08-24T13:54:11.991Z,7.53
2017-08-24T13:56:39.586Z,6.93
2017-08-24T13:59:07.147Z,6.07
2017-08-24T14:01:34.703Z,6.20
2017-08-24T14:04:02.268Z,8.47
2017-08-24T14:06:29.968Z,9.60
2017-08-24T14:08:58.420Z,10.83
2017-08-24T14:11:25.967Z,10.50
2017-08-24T14:13:53.486Z,6.50
2017-08-24T14:16:21.079Z,5.90
2017-08-24T14:18:48.639Z,4.97
2017-08-24T14:21:16.298Z,6.40
2017-08-24T14:23:43.959Z,5.17
2017-08-24T14:26:11.471Z,7.97
2017-08-24T14:28:38.971Z,7.20
2017-08-24T14:31:06.552Z,5.57
2017-08-24T14:33:34.053Z,5.37
2017-08-24T14:36:02.291Z,7.50
2017-08-24T14:38:29.826Z,5.13
2017-08-24T14:40:57.391Z,6.43
2017-08-24T14:43:24.947Z,5.37
2017-08-24T14:45:52.506Z,4.87
2017-08-24T14:48:21.000Z,5.30
2017-08-24T14:50:48.542Z,5.30
2017-08-24T14:53:17.032Z,5.33
2017-08-24T14:55:44.686Z,5.00
2017-08-24T14:58:12.898Z,4.90
2017-08-24T15:00:40.523Z,4.93
2017-08-24T15:03:08.430Z,6.53
2017-08-24T15:05:35.947Z,5.40
2017-08-24T15:08:03.446Z,5.00
2017-08-24T15:10:31.062Z,5.23
2017-08-24T15:12:58.851Z,4.83
2017-08-24T15:15:26.347Z,5.07
2017-08-24T15:17:53.942Z,6.17
2017-08-24T15:20:21.503Z,5.03
2017-08-24T15:22:49.071Z,5.17
2017-08-24T15:25:16.731Z,5.37
2017-08-24T15:27:44.291Z,5.40
2017-08-24T15:30:12.622Z,5.67
2017-08-24T15:32:40.219Z,5.33
2017-08-24T15:35:07.788Z,5.13
2017-08-24T15:37:36.058Z,5.37
2017-08-24T15:40:03.567Z,5.03
2017-08-24T15:42:31.107Z,5.47
2017-08-24T15:44:59.467Z,5.10
2017-08-24T15:47:26.987Z,5.73
2017-08-24T15:49:54.491Z,5.40
2017-08-24T15:52:22.036Z,7.23
2017-08-24T15:54:49.587Z,5.30
2017-08-24T15:57:17.143Z,4.80
2017-08-24T15:59:44.703Z,5.90
2017-08-24T16:02:12.267Z,6.07
2017-08-24T16:04:39.929Z,4.90
2017-08-24T16:07:07.486Z,5.43
2017-08-24T16:09:35.775Z,5.23
2017-08-24T16:12:03.323Z,4.43
2017-08-24T16:14:31.591Z,5.50
2017-08-24T16:16:59.103Z,3.83
2017-08-24T16:19:26.829Z,5.17
2017-08-24T16:21:54.332Z,4.27
2017-08-24T16:24:21.847Z,2.90
2017-08-24T16:26:49.339Z,4.37
2017-08-24T16:29:16.943Z,4.23
2017-08-24T16:31:44.955Z,3.33
2017-08-24T16:34:12.588Z,3.60
2017-08-24T16:36:40.139Z,4.23
2017-08-24T16:39:07.693Z,3.80
2017-08-24T16:41:36.086Z,4.00
2017-08-24T16:44:03.632Z,4.33
2017-08-24T16:46:31.206Z,5.77
2017-08-24T16:48:58.727Z,4.53
2017-08-24T16:51:26.594Z,5.43
2017-08-24T16:53:54.180Z,3.67
2017-08-24T16:56:21.734Z,4.03
2017-08-24T16:58:49.248Z,3.57
2017-08-24T17:01:16.767Z,4.10
2017-08-24T17:03:45.028Z,4.40
2017-08-24T17:06:12.560Z,3.60
2017-08-24T17:08:41.040Z,5.30
2017-08-24T17:11:08.628Z,3.30
2017-08-24T17:13:36.178Z,4.50
2017-08-24T17:16:03.705Z,4.47
2017-08-24T17:18:31.291Z,3.13
2017-08-24T17:20:58.815Z,3.10
2017-08-24T17:23:26.423Z,3.83
2017-08-24T17:25:53.940Z,3.87
2017-08-24T17:28:21.540Z,4.07
2017-08-24T17:30:49.094Z,3.40
2017-08-24T17:33:16.862Z,4.23
2017-08-24T17:35:44.603Z,2.87
2017-08-24T17:38:12.183Z,6.50
2017-08-24T17:40:39.739Z,4.20
2017-08-24T17:43:07.235Z,4.33
2017-08-24T17:45:34.759Z,3.13
2017-08-24T17:48:02.319Z,3.03
2017-08-24T17:50:29.874Z,2.93
2017-08-24T17:52:57.374Z,2.90
2017-08-24T17:55:24.898Z,5.33
2017-08-24T17:57:52.448Z,3.30
2017-08-24T18:00:20.319Z,3.57
2017-08-24T18:02:47.877Z,3.40
2017-08-24T18:05:15.431Z,3.53
2017-08-24T18:07:42.947Z,2.33
2017-08-24T18:10:10.450Z,2.73
2017-08-24T18:12:37.971Z,2.60
2017-08-24T18:15:05.890Z,2.90
2017-08-24T18:17:33.551Z,6.30
2017-08-24T18:20:01.154Z,2.60
2017-08-24T18:22:28.687Z,2.63
2017-08-24T18:24:56.195Z,5.77
2017-08-24T18:27:23.775Z,3.20
2017-08-24T18:29:51.335Z,3.73
2017-08-24T18:32:18.887Z,2.90
2017-08-24T18:34:46.395Z,4.33
2017-08-24T18:37:13.916Z,2.87
2017-08-24T18:39:41.467Z,2.73
2017-08-24T18:42:08.971Z,2.23
2017-08-24T18:44:36.584Z,2.70
2017-08-24T18:47:04.451Z,2.50
2017-08-24T18:49:32.006Z,2.60
2017-08-24T18:51:59.571Z,4.80
2017-08-24T18:54:27.326Z,3.50
2017-08-24T18:56:54.831Z,2.93
2017-08-24T18:59:22.343Z,3.00
2017-08-24T19:01:49.954Z,2.87
2017-08-24T19:04:18.095Z,3.40
2017-08-24T19:06:45.652Z,4.13
2017-08-24T19:09:13.202Z,4.80
2017-08-24T19:11:40.805Z,3.17
2017-08-24T19:14:08.620Z,5.50
2017-08-24T19:16:36.178Z,4.30
2017-08-24T19:19:03.738Z,4.37
2017-08-24T19:21:31.313Z,3.40
2017-08-24T19:23:58.872Z,4.03
2017-08-24T19:26:26.419Z,5.17
2017-08-24T19:28:53.946Z,3.37
2017-08-24T19:31:21.443Z,3.67
2017-08-24T19:33:49.003Z,3.17
2017-08-24T19:36:16.519Z,4.40
2017-08-24T19:38:44.108Z,3.73
2017-08-24T19:41:11.640Z,4.37
2017-08-24T19:43:39.851Z,4.73
2017-08-24T19:46:08.223Z,3.27
2017-08-24T19:48:35.723Z,5.07
2017-08-24T19:51:03.339Z,3.77
2017-08-24T19:53:30.895Z,3.73
2017-08-24T19:55:59.381Z,5.13
2017-08-24T19:58:26.891Z,3.67
2017-08-24T20:00:54.571Z,3.83
2017-08-24T20:03:22.154Z,5.20
2017-08-24T20:05:49.719Z,3.67
2017-08-24T20:08:17.289Z,4.13
2017-08-24T20:10:44.802Z,3.47
2017-08-24T20:13:12.354Z,3.83
2017-08-24T20:15:39.903Z,4.23
2017-08-24T20:18:07.520Z,4.07
2017-08-24T20:20:35.071Z,6.50
2017-08-24T20:23:02.575Z,6.23
2017-08-24T20:25:30.088Z,4.07
2017-08-24T20:27:57.608Z,4.67
2017-08-24T20:30:25.115Z,3.47
2017-08-24T20:32:52.659Z,4.13
2017-08-24T20:35:20.171Z,3.70
2017-08-24T20:37:47.775Z,3.50
2017-08-24T20:40:15.311Z,4.47
2017-08-24T20:42:42.916Z,6.73
2017-08-24T20:45:10.450Z,5.23
2017-08-24T20:47:37.968Z,4.57
2017-08-24T20:50:05.577Z,4.10
2017-08-24T20:52:33.110Z,4.00
2017-08-24T20:55:00.700Z,4.23
2017-08-24T20:57:28.246Z,4.20
2017-08-24T20:59:55.806Z,5.80
2017-08-24T21:02:23.330Z,4.37
2017-08-24T21:04:50.843Z,3.77
2017-08-24T21:07:18.397Z,3.87
2017-08-24T21:09:46.048Z,3.70
2017-08-24T21:12:13.608Z,4.80
2017-08-24T21:14:41.935Z,3.83
2017-08-24T21:17:09.539Z,4.53
2017-08-24T21:19:37.103Z,3.70
2017-08-24T21:22:04.611Z,3.87
2017-08-24T21:24:32.223Z,4.03
2017-08-24T21:26:59.783Z,5.20
2017-08-24T21:29:27.335Z,5.10
2017-08-24T21:31:54.895Z,25.90
2017-08-24T21:34:22.419Z,6.47
2017-08-24T21:36:50.131Z,3.77
2017-08-24T21:39:18.399Z,3.53
2017-08-24T21:41:45.949Z,3.03
2017-08-24T21:44:13.512Z,4.33
2017-08-24T21:46:41.015Z,4.43
2017-08-24T21:49:08.531Z,4.57
2017-08-24T21:51:36.039Z,4.50
2017-08-24T21:54:04.287Z,3.50
2017-08-24T21:56:31.816Z,4.37
2017-08-24T21:58:59.527Z,4.27
2017-08-24T22:01:27.030Z,4.13
2017-08-24T22:03:54.548Z,4.03
2017-08-24T22:06:22.051Z,4.77
2017-08-24T22:08:50.063Z,3.67
2017-08-24T22:11:17.683Z,3.77
2017-08-24T22:13:45.499Z,4.07
2017-08-24T22:16:13.019Z,4.07
2017-08-24T22:18:40.519Z,5.00
2017-08-24T22:21:08.039Z,3.53
2017-08-24T22:23:35.603Z,6.53
2017-08-24T22:26:03.139Z,3.60
2017-08-24T22:28:30.703Z,5.83
2017-08-24T22:30:58.227Z,3.73
2017-08-24T22:33:25.830Z,3.40
2017-08-24T22:35:53.390Z,4.60
2017-08-24T22:38:20.931Z,4.27
2017-08-24T22:40:48.494Z,5.83
2017-08-24T22:43:16.771Z,4.83
2017-08-24T22:45:44.287Z,4.67
2017-08-24T22:48:11.882Z,3.90
2017-08-24T22:50:39.442Z,3.50
2017-08-24T22:53:12.670Z,3.20
2017-08-24T22:55:46.003Z,6.20
2017-08-24T22:58:19.236Z,3.50
2017-08-24T23:00:52.383Z,3.40
2017-08-24T23:03:25.563Z,3.97
2017-08-24T23:05:53.087Z,4.07
2017-08-24T23:08:20.591Z,3.67
2017-08-24T23:10:48.999Z,4.10
2017-08-24T23:13:17.495Z,3.70
2017-08-24T23:15:46.514Z,5.80
2017-08-24T23:18:14.130Z,3.67
2017-08-24T23:20:41.630Z,3.70
2017-08-24T23:23:09.971Z,3.63
2017-08-24T23:25:38.042Z,2.93
2017-08-24T23:28:05.563Z,4.13
2017-08-24T23:30:33.063Z,4.20
2017-08-24T23:33:00.620Z,3.80
2017-08-24T23:35:28.171Z,4.10
2017-08-24T23:37:55.727Z,5.80
2017-08-24T23:40:23.287Z,3.80
2017-08-24T23:42:50.855Z,3.80
2017-08-24T23:45:18.354Z,3.07
2017-08-24T23:47:45.971Z,3.63
2017-08-24T23:50:13.475Z,3.43
2017-08-24T23:52:41.083Z,3.60
2017-08-24T23:55:08.652Z,3.57
2017-08-24T23:57:36.578Z,5.10
